Time;durP1;ratioP1;P1;durP2;ratioP2;P2;SDS_P1;SDS_P2;PMS_P1;PMS_P2;Temp;Humidity;BMP_temperature;BMP_pressure;BME280_temperature;BME280_humidity;BME280_pressure;Samples;Min_cycle;Max_cycle;Signal;HPM_P1;HPM_P2
2022/08/12 00:44:43;;;;;;;8.65;3.20;;;19.90;99.90;;;;;;5049645;28;20369;-53
2022/08/12 00:47:11;;;;;;;7.57;2.83;;;19.90;99.90;;;;;;5049638;28;20388;-50
2022/08/12 00:49:37;;;;;;;6.65;3.22;;;19.80;99.90;;;;;;5049788;28;20423;-55
2022/08/12 00:52:05;;;;;;;7.18;3.90;;;19.70;99.90;;;;;;5049338;28;20382;-49
2022/08/12 00:54:35;;;;;;;7.93;3.30;;;19.60;99.90;;;;;;5049577;28;20381;-49
2022/08/12 00:57:04;;;;;;;8.50;4.30;;;19.60;99.90;;;;;;5049251;28;20445;-50
2022/08/12 00:59:31;;;;;;;7.30;4.30;;;19.60;99.90;;;;;;5049448;28;20431;-49
2022/08/12 01:02:00;;;;;;;7.90;3.90;;;19.60;99.90;;;;;;5048376;28;21104;-50
2022/08/12 01:12:44;;;;;;;9.63;3.90;;;19.50;99.90;;;;;;5045967;28;20791;-49
2022/08/12 01:15:12;;;;;;;8.20;4.10;;;19.40;99.90;;;;;;5049736;28;20924;-49
2022/08/12 01:17:43;;;;;;;8.57;3.47;;;19.30;99.90;;;;;;5038839;28;20821;-50
2022/08/12 01:20:17;;;;;;;8.95;4.20;;;19.30;99.90;;;;;;5049656;28;20456;-50
2022/08/12 01:23:09;;;;;;;7.05;3.80;;;19.20;99.90;;;;;;5049341;28;20392;-49
2022/08/12 01:25:39;;;;;;;7.40;3.50;;;19.10;99.90;;;;;;5046696;28;20459;-50
2022/08/12 01:28:09;;;;;;;9.25;3.47;;;19.00;99.90;;;;;;5049504;28;20870;-50
2022/08/12 01:30:38;;;;;;;8.80;4.30;;;19.00;99.90;;;;;;5048904;28;20436;-49
2022/08/12 01:33:13;;;;;;;8.70;4.23;;;19.00;99.90;;;;;;5049407;28;20412;-49
2022/08/12 01:35:53;;;;;;;9.43;3.90;;;18.90;99.90;;;;;;5048649;28;20391;-51
2022/08/12 01:38:21;;;;;;;8.10;3.55;;;18.80;99.90;;;;;;5048967;28;20385;-49
2022/08/12 01:40:47;;;;;;;8.90;3.22;;;18.80;99.90;;;;;;5048227;28;20776;-49
2022/08/12 01:43:20;;;;;;;7.70;3.00;;;19.60;99.90;;;;;;5049503;28;20855;-50
2022/08/12 01:46:08;;;;;;;7.55;2.97;;;18.80;99.90;;;;;;5045888;28;20389;-49
2022/08/12 01:48:42;;;;;;;6.60;3.38;;;18.70;99.90;;;;;;5048177;28;20389;-50
2022/08/12 01:51:41;;;;;;;7.23;3.70;;;18.80;99.90;;;;;;5050758;28;20389;-51
2022/08/12 01:54:12;;;;;;;10.80;3.70;;;18.70;99.90;;;;;;5050584;28;20529;-52
2022/08/12 01:56:48;;;;;;;7.85;3.20;;;18.70;99.90;;;;;;5052065;28;20405;-54
2022/08/12 01:59:45;;;;;;;6.73;3.20;;;18.60;99.90;;;;;;5053236;28;20531;-50
2022/08/12 02:02:15;;;;;;;7.15;4.00;;;18.50;99.90;;;;;;5052798;28;20413;-49
2022/08/12 02:13:50;;;;;;;7.30;3.30;;;18.00;99.90;;;;;;5050083;28;20403;-49
2022/08/12 02:16:44;;;;;;;7.70;3.20;;;17.90;99.90;;;;;;5051102;28;20909;-49
2022/08/12 02:19:18;;;;;;;7.30;3.25;;;17.80;99.90;;;;;;5050920;28;20463;-49
2022/08/12 02:22:00;;;;;;;7.47;3.97;;;17.80;99.90;;;;;;5049340;28;20401;-49
2022/08/12 02:24:30;;;;;;;9.30;3.80;;;17.70;99.90;;;;;;5049933;28;20851;-48
2022/08/12 02:26:56;;;;;;;7.73;3.60;;;17.70;99.90;;;;;;5051735;28;20398;-49
2022/08/12 02:29:22;;;;;;;8.90;3.30;;;17.80;99.90;;;;;;5049837;28;20389;-49
2022/08/12 02:31:49;;;;;;;7.87;3.63;;;17.60;99.90;;;;;;5051383;28;20397;-49
2022/08/12 02:34:16;;;;;;;7.78;3.50;;;17.50;99.90;;;;;;5051848;28;20811;-49
2022/08/12 02:36:44;;;;;;;9.60;3.88;;;17.50;99.90;;;;;;5051705;28;20402;-53
2022/08/12 02:39:14;;;;;;;7.90;3.80;;;17.50;99.90;;;;;;5052306;28;20378;-49
2022/08/12 02:41:44;;;;;;;8.87;4.27;;;17.50;99.90;;;;;;5051094;28;20883;-53
2022/08/12 02:44:14;;;;;;;6.60;2.70;;;17.50;99.90;;;;;;5052487;28;20873;-49
2022/08/12 02:46:48;;;;;;;6.80;3.20;;;17.40;99.90;;;;;;5051881;28;20377;-49
2022/08/12 02:49:33;;;;;;;7.40;3.40;;;17.30;99.90;;;;;;5052330;28;20389;-49
2022/08/12 02:51:59;;;;;;;7.18;3.30;;;17.40;99.90;;;;;;5051724;28;21201;-49
2022/08/12 02:54:26;;;;;;;7.97;3.10;;;17.50;99.90;;;;;;5052531;28;20398;-48
2022/08/12 02:56:52;;;;;;;6.97;3.20;;;17.50;99.90;;;;;;5052024;28;20390;-49
2022/08/12 02:59:21;;;;;;;7.90;3.50;;;17.30;99.90;;;;;;5052726;28;20382;-49
2022/08/12 03:02:10;;;;;;;8.98;3.38;;;17.20;99.90;;;;;;5051504;28;20796;-49
2022/08/12 03:04:48;;;;;;;6.68;3.03;;;17.20;99.90;;;;;;5052288;28;20390;-48
2022/08/12 03:07:20;;;;;;;7.60;3.63;;;17.00;99.90;;;;;;5052291;28;20373;-49
2022/08/12 03:09:58;;;;;;;8.18;3.30;;;17.00;99.90;;;;;;5051031;28;20773;-51
2022/08/12 03:12:24;;;;;;;6.88;3.40;;;16.90;99.90;;;;;;5051855;28;20928;-49
2022/08/12 03:14:52;;;;;;;7.53;3.08;;;16.90;99.90;;;;;;5051281;28;20744;-48
2022/08/12 03:17:54;;;;;;;7.90;3.10;;;16.90;99.90;;;;;;5051018;28;20723;-48
2022/08/12 03:20:21;;;;;;;8.70;3.30;;;16.90;99.90;;;;;;5051790;28;20386;-48
2022/08/12 03:22:48;;;;;;;8.60;3.55;;;16.90;99.90;;;;;;5051148;28;20839;-48
2022/08/12 03:25:26;;;;;;;7.28;3.50;;;16.80;99.90;;;;;;5051256;28;20396;-48
2022/08/12 03:27:56;;;;;;;8.73;3.42;;;16.80;99.90;;;;;;5050484;28;20405;-48
2022/08/12 03:30:30;;;;;;;8.43;3.60;;;16.80;99.90;;;;;;5050935;28;20543;-49
2022/08/12 03:32:57;;;;;;;9.00;3.35;;;16.70;99.90;;;;;;5050445;28;20396;-49
2022/08/12 03:35:26;;;;;;;7.70;3.20;;;16.70;99.90;;;;;;5050734;28;20405;-50
2022/08/12 03:37:57;;;;;;;8.13;4.05;;;16.70;99.90;;;;;;5051038;28;20444;-49
2022/08/12 04:02:33;;;;;;;8.35;3.30;;;16.50;99.90;;;;;;5049580;28;20416;-50
2022/08/12 04:05:01;;;;;;;7.50;3.47;;;16.40;99.90;;;;;;5049790;28;20413;-49
2022/08/12 04:07:28;;;;;;;8.85;4.10;;;16.40;99.90;;;;;;5050286;28;20658;-49
2022/08/12 04:09:56;;;;;;;7.43;3.13;;;16.40;99.90;;;;;;5049451;28;20389;-48
2022/08/12 04:15:12;;;;;;;8.00;3.50;;;16.30;99.90;;;;;;5049430;28;20376;-48
2022/08/12 04:17:40;;;;;;;7.50;3.30;;;16.30;99.90;;;;;;5047562;28;20400;-50
2022/08/12 04:20:08;;;;;;;7.50;3.80;;;16.40;99.90;;;;;;5049795;28;20392;-49
2022/08/12 04:22:35;;;;;;;8.77;3.78;;;16.30;99.90;;;;;;5050285;28;20770;-48
2022/08/12 04:25:01;;;;;;;8.27;3.40;;;16.30;99.90;;;;;;5031895;28;20393;-48
2022/08/12 04:27:30;;;;;;;8.40;3.40;;;16.20;99.90;;;;;;5049617;28;20405;-50
2022/08/12 04:29:57;;;;;;;10.90;4.65;;;16.20;99.90;;;;;;5049349;28;20416;-50
2022/08/12 04:32:23;;;;;;;11.18;4.72;;;16.10;1.00;;;;;;5050058;28;20377;-48
2022/08/12 04:34:50;;;;;;;8.70;3.80;;;16.00;1.00;;;;;;5049385;28;20401;-48
2022/08/12 04:37:15;;;;;;;8.73;4.05;;;16.00;1.00;;;;;;5050730;28;20377;-48
2022/08/12 04:39:43;;;;;;;16.80;7.37;;;15.90;1.00;;;;;;5042458;28;20397;-52
2022/08/12 04:42:09;;;;;;;11.02;4.90;;;16.00;1.00;;;;;;5045130;28;20417;-48
2022/08/12 04:44:34;;;;;;;14.70;6.00;;;16.00;1.00;;;;;;5048168;28;20870;-49
2022/08/12 04:47:00;;;;;;;22.43;8.07;;;16.20;1.00;;;;;;5046648;28;20386;-51
2022/08/12 04:49:27;;;;;;;23.08;7.30;;;16.30;1.00;;;;;;5048552;28;20393;-52
2022/08/12 04:51:55;;;;;;;13.25;4.97;;;16.30;1.00;;;;;;5048834;28;20381;-49
2022/08/12 04:54:21;;;;;;;9.80;4.07;;;16.40;1.00;;;;;;5049802;28;20389;-49
2022/08/12 04:56:51;;;;;;;10.52;4.30;;;16.50;1.00;;;;;;5049072;28;20457;-50
2022/08/12 04:59:16;;;;;;;9.32;3.67;;;16.60;1.00;;;;;;5049066;28;20406;-50
2022/08/12 05:01:49;;;;;;;8.80;3.80;;;17.10;1.00;;;;;;5048862;28;20936;-54
2022/08/12 05:04:16;;;;;;;12.00;4.70;;;18.00;99.90;;;;;;5049401;28;20432;-49
2022/08/12 05:06:41;;;;;;;8.00;3.53;;;19.70;99.90;;;;;;5048298;28;20863;-54
2022/08/12 05:09:08;;;;;;;8.57;3.47;;;21.20;99.90;;;;;;5048779;28;20401;-49
2022/08/12 05:11:35;;;;;;;8.50;4.10;;;22.50;99.90;;;;;;5048818;28;20879;-50
2022/08/12 05:14:01;;;;;;;9.80;3.77;;;23.40;99.90;;;;;;5047797;28;20427;-50
2022/08/12 05:16:27;;;;;;;8.67;3.90;;;24.20;99.90;;;;;;5049418;28;20389;-50
2022/08/12 05:18:53;;;;;;;8.57;4.07;;;24.60;99.90;;;;;;5048437;28;20370;-50
2022/08/12 05:21:18;;;;;;;8.40;4.00;;;24.80;99.90;;;;;;5049001;28;20409;-51
2022/08/12 05:23:44;;;;;;;11.00;4.07;;;25.30;99.90;;;;;;5048487;28;20478;-54
2022/08/12 05:26:10;;;;;;;12.00;4.27;;;26.20;99.90;;;;;;5035011;28;21016;-49
2022/08/12 05:28:36;;;;;;;8.07;4.13;;;26.70;99.90;;;;;;5053472;28;20516;-49
2022/08/12 05:31:02;;;;;;;9.23;5.60;;;27.30;99.90;;;;;;5052369;28;20393;-50
2022/08/12 05:33:36;;;;;;;10.30;5.18;;;28.10;99.90;;;;;;5046623;28;20404;-49
2022/08/12 05:36:09;;;;;;;9.68;5.40;;;29.30;99.90;;;;;;5046149;28;20499;-51
2022/08/12 05:41:19;;;;;;;9.80;5.87;;;30.80;99.90;;;;;;5033331;28;20449;-53
2022/08/12 05:43:56;;;;;;;11.53;5.80;;;31.40;99.90;;;;;;5052260;28;20790;-55
2022/08/12 05:46:24;;;;;;;13.80;5.97;;;32.20;99.90;;;;;;5052326;28;20399;-53
2022/08/12 05:48:53;;;;;;;10.50;5.90;;;33.00;99.90;;;;;;5051650;28;20436;-51
2022/08/12 05:51:23;;;;;;;10.97;6.23;;;33.20;99.90;;;;;;5053442;28;20753;-51
2022/08/12 05:53:53;;;;;;;10.60;5.57;;;33.30;99.90;;;;;;5051813;28;20412;-51
2022/08/12 05:56:22;;;;;;;9.73;7.15;;;32.90;99.90;;;;;;5053124;28;20468;-51
2022/08/12 05:58:50;;;;;;;7.93;6.38;;;32.90;99.90;;;;;;5052211;28;20405;-51
2022/08/12 06:01:15;;;;;;;8.43;6.00;;;33.80;99.90;;;;;;5052957;28;20405;-51
2022/08/12 06:03:41;;;;;;;7.70;6.70;;;34.30;99.90;;;;;;5050778;28;20932;-53
2022/08/12 06:06:09;;;;;;;8.48;6.05;;;34.50;99.90;;;;;;5049120;28;20913;-53
2022/08/12 06:08:34;;;;;;;8.87;6.70;;;34.70;99.90;;;;;;5052988;28;20408;-53
2022/08/12 06:11:03;;;;;;;8.47;6.97;;;34.90;99.90;;;;;;5052123;28;20393;-53
2022/08/12 06:13:29;;;;;;;8.55;7.10;;;35.10;99.90;;;;;;5051382;28;20389;-52
2022/08/12 06:15:56;;;;;;;8.70;6.57;;;35.00;99.90;;;;;;5058996;28;20398;-51
2022/08/12 06:18:22;;;;;;;10.52;7.22;;;35.30;99.90;;;;;;5072698;28;20721;-51
2022/08/12 06:20:48;;;;;;;8.35;6.57;;;35.00;99.90;;;;;;5057668;28;20409;-51
2022/08/12 06:23:14;;;;;;;9.43;7.82;;;35.00;99.90;;;;;;5053140;28;20508;-51
2022/08/12 06:25:42;;;;;;;7.97;6.80;;;35.00;99.90;;;;;;5065056;28;20419;-51
2022/08/12 06:28:16;;;;;;;7.85;6.35;;;35.70;99.90;;;;;;5062755;28;20417;-51
2022/08/12 06:30:44;;;;;;;7.10;4.63;;;35.20;99.90;;;;;;5059729;28;20472;-51
2022/08/12 06:33:10;;;;;;;9.23;4.80;;;36.30;99.90;;;;;;5066445;28;20383;-51
2022/08/12 06:35:40;;;;;;;6.85;3.67;;;36.40;99.90;;;;;;5059559;28;20411;-51
2022/08/12 06:38:23;;;;;;;7.25;3.90;;;35.40;99.90;;;;;;5055651;28;20443;-51
2022/08/12 06:43:42;;;;;;;7.40;3.50;;;35.40;99.90;;;;;;5050618;28;20459;-51
2022/08/12 06:46:09;;;;;;;8.43;3.40;;;36.00;99.90;;;;;;5051810;28;20377;-51
2022/08/12 06:48:36;;;;;;;8.10;3.78;;;36.00;99.90;;;;;;5051975;28;20815;-51
2022/08/12 06:51:02;;;;;;;7.15;3.67;;;36.10;99.90;;;;;;5051735;28;20468;-52
2022/08/12 06:53:31;;;;;;;7.50;3.30;;;35.90;99.90;;;;;;5052153;28;20718;-52
2022/08/12 06:55:59;;;;;;;9.80;3.70;;;35.60;99.90;;;;;;5051996;28;20480;-51
2022/08/12 06:58:26;;;;;;;6.70;3.17;;;35.10;99.90;;;;;;5051403;28;20786;-51
2022/08/12 07:00:53;;;;;;;8.10;3.40;;;35.90;99.90;;;;;;5051106;28;20417;-52
2022/08/12 07:03:37;;;;;;;9.43;3.67;;;35.80;99.90;;;;;;5052397;28;20381;-52
2022/08/12 07:06:10;;;;;;;7.20;3.47;;;36.40;99.90;;;;;;5054429;28;20921;-51
2022/08/12 07:08:37;;;;;;;7.63;3.40;;;35.70;99.90;;;;;;5056671;28;20384;-51
2022/08/12 07:11:08;;;;;;;7.27;3.20;;;36.00;99.90;;;;;;5068388;28;20416;-51
2022/08/12 07:13:37;;;;;;;7.60;3.40;;;35.70;99.90;;;;;;5051460;28;20465;-51
2022/08/12 07:16:06;;;;;;;7.30;3.50;;;35.60;99.90;;;;;;5050734;28;20393;-51
2022/08/12 07:18:32;;;;;;;8.50;5.43;;;;;;;;;;5051476;28;20478;-51
2022/08/12 07:21:00;;;;;;;7.60;3.30;;;36.80;99.90;;;;;;5050659;28;20412;-51
2022/08/12 07:23:26;;;;;;;7.60;3.50;;;37.80;99.90;;;;;;5051703;28;20476;-51
2022/08/12 07:25:53;;;;;;;7.90;3.42;;;36.40;99.90;;;;;;5051282;28;20444;-52
2022/08/12 07:28:24;;;;;;;7.32;3.35;;;36.00;99.90;;;;;;5051363;28;20927;-51
2022/08/12 07:30:53;;;;;;;8.00;3.50;;;36.40;99.90;;;;;;5050862;28;20378;-52
2022/08/12 07:33:23;;;;;;;8.00;3.77;;;35.90;99.90;;;;;;5051340;28;20385;-51
2022/08/12 07:35:52;;;;;;;9.32;3.53;;;36.30;99.90;;;;;;5051386;28;20385;-51
2022/08/12 07:38:33;;;;;;;8.13;3.80;;;35.50;99.90;;;;;;5051347;28;20423;-51
2022/08/12 07:41:06;;;;;;;8.63;2.93;;;36.30;99.90;;;;;;5050717;28;20401;-51
2022/08/12 07:43:35;;;;;;;6.60;3.70;;;37.00;99.90;;;;;;5050685;28;20394;-51
2022/08/12 07:46:04;;;;;;;7.95;3.42;;;37.40;99.90;;;;;;5050842;28;20403;-51
2022/08/12 07:48:40;;;;;;;7.33;3.50;;;37.10;99.90;;;;;;5052628;28;20385;-51
2022/08/12 07:51:05;;;;;;;7.88;3.50;;;36.90;99.90;;;;;;5051426;28;20936;-52
2022/08/12 07:53:32;;;;;;;7.20;2.67;;;36.80;99.90;;;;;;5050866;28;20386;-51
2022/08/12 07:55:58;;;;;;;7.80;2.90;;;38.10;99.90;;;;;;5050345;28;20385;-51
2022/08/12 07:58:24;;;;;;;7.68;3.47;;;37.60;99.90;;;;;;5050550;28;20419;-51
2022/08/12 08:00:51;;;;;;;8.30;3.70;;;37.10;99.90;;;;;;5050354;28;20433;-51
2022/08/12 08:03:17;;;;;;;7.20;3.00;;;36.20;99.90;;;;;;5050343;28;20401;-53
2022/08/12 08:05:45;;;;;;;6.78;3.00;;;35.40;99.90;;;;;;5051093;28;20717;-51
2022/08/12 08:08:23;;;;;;;7.10;3.30;;;36.10;99.90;;;;;;5032033;28;20389;-51
2022/08/12 08:10:51;;;;;;;9.73;3.78;;;36.60;99.90;;;;;;5049761;28;20797;-51
2022/08/12 08:13:17;;;;;;;6.43;2.90;;;37.30;99.90;;;;;;5050826;28;20392;-51
2022/08/12 08:15:47;;;;;;;8.85;3.25;;;38.00;99.90;;;;;;5050299;28;20385;-51
2022/08/12 08:18:15;;;;;;;7.53;3.00;;;38.60;99.90;;;;;;5050610;28;20465;-51
2022/08/12 08:20:43;;;;;;;8.02;5.55;;;38.70;99.90;;;;;;5050196;28;20901;-52
2022/08/12 08:23:12;;;;;;;9.00;4.97;;;38.70;99.90;;;;;;5049636;28;20712;-51
2022/08/12 08:25:38;;;;;;;8.40;5.60;;;39.50;99.90;;;;;;5050653;28;20423;-51
2022/08/12 08:28:13;;;;;;;7.90;5.60;;;39.50;99.90;;;;;;5049931;28;20413;-51
2022/08/12 08:30:42;;;;;;;6.53;2.90;;;39.70;99.90;;;;;;5050976;28;20373;-51
2022/08/12 08:33:09;;;;;;;7.80;5.70;;;39.90;1.00;;;;;;5050146;28;20408;-51
2022/08/12 08:35:39;;;;;;;7.20;5.15;;;39.20;1.00;;;;;;5050318;28;20384;-51
2022/08/12 08:38:16;;;;;;;8.40;5.60;;;39.00;1.00;;;;;;5049889;28;20378;-51
2022/08/12 08:43:28;;;;;;;8.87;5.40;;;38.00;99.90;;;;;;5050688;28;20380;-52
2022/08/12 08:46:00;;;;;;;7.75;6.00;;;38.40;99.90;;;;;;5049232;28;20393;-51
2022/08/12 08:48:29;;;;;;;7.20;5.78;;;38.50;99.90;;;;;;5050002;28;20381;-51
2022/08/12 08:50:55;;;;;;;7.90;6.35;;;39.30;99.90;;;;;;5049649;28;20389;-51
2022/08/12 08:53:21;;;;;;;6.45;4.90;;;38.70;99.90;;;;;;5049949;28;20784;-51
2022/08/12 08:55:48;;;;;;;7.30;5.30;;;38.80;99.90;;;;;;5049601;28;20389;-56
2022/08/12 08:58:13;;;;;;;7.60;5.97;;;38.90;99.90;;;;;;5049512;28;20440;-51
2022/08/12 09:00:39;;;;;;;6.65;2.85;;;39.80;99.90;;;;;;5050443;28;20427;-51
2022/08/12 09:03:06;;;;;;;8.30;5.57;;;41.00;99.90;;;;;;5049864;28;21279;-51
2022/08/12 09:05:32;;;;;;;6.82;5.30;;;41.20;99.90;;;;;;5050113;28;20446;-51
2022/08/12 09:08:00;;;;;;;7.88;3.35;;;40.90;99.90;;;;;;5049724;28;20381;-51
2022/08/12 09:10:26;;;;;;;11.85;4.15;;;40.20;99.90;;;;;;5049966;28;20821;-52
2022/08/12 09:15:37;;;;;;;7.10;4.07;;;39.70;99.90;;;;;;5049710;28;20377;-51
2022/08/12 09:18:06;;;;;;;6.07;3.30;;;40.90;99.90;;;;;;5049323;28;20424;-51
2022/08/12 09:20:33;;;;;;;6.20;2.50;;;40.30;99.90;;;;;;5049780;28;20382;-51
2022/08/12 09:23:00;;;;;;;5.85;2.55;;;40.10;99.90;;;;;;5049278;28;20428;-51
2022/08/12 09:25:30;;;;;;;8.73;3.30;;;40.40;99.90;;;;;;5049734;28;20870;-51
2022/08/12 09:27:57;;;;;;;7.68;5.63;;;40.40;99.90;;;;;;5048642;28;20523;-52
2022/08/12 09:30:27;;;;;;;8.60;7.00;;;39.60;99.90;;;;;;5049958;28;20942;-51
2022/08/12 09:32:53;;;;;;;9.32;5.25;;;38.60;99.90;;;;;;5048987;28;20468;-52
2022/08/12 09:35:24;;;;;;;6.82;4.00;;;38.50;99.90;;;;;;5049908;28;20455;-52
2022/08/12 09:37:54;;;;;;;7.20;4.00;;;38.80;99.90;;;;;;5049072;28;20824;-51
2022/08/12 09:40:22;;;;;;;6.93;4.53;;;38.70;99.90;;;;;;5050064;28;20381;-51
2022/08/12 09:45:34;;;;;;;8.30;4.20;;;38.60;99.90;;;;;;5049758;28;20419;-51
2022/08/12 09:48:07;;;;;;;7.70;3.60;;;38.30;99.90;;;;;;5048968;28;20413;-51
2022/08/12 09:50:34;;;;;;;8.05;3.47;;;38.70;99.90;;;;;;5049542;28;20393;-51
2022/08/12 09:53:09;;;;;;;7.80;3.50;;;39.50;99.90;;;;;;5048345;28;20854;-51
2022/08/12 09:55:36;;;;;;;6.23;3.53;;;39.80;99.90;;;;;;5049454;28;20731;-50
2022/08/12 09:58:03;;;;;;;8.60;5.20;;;38.40;99.90;;;;;;5049159;28;20444;-50
2022/08/12 10:00:28;;;;;;;6.90;3.83;;;37.90;99.90;;;;;;5049828;28;20381;-50
2022/08/12 10:03:07;;;;;;;7.07;4.10;;;38.70;99.90;;;;;;5049239;28;20450;-51
2022/08/12 10:05:35;;;;;;;7.20;4.13;;;39.00;99.90;;;;;;5049479;28;20422;-50
2022/08/12 10:08:02;;;;;;;6.80;3.63;;;39.00;99.90;;;;;;5048713;28;20370;-50
2022/08/12 10:10:28;;;;;;;8.20;6.10;;;39.10;99.90;;;;;;5050075;28;20424;-51
2022/08/12 10:13:59;;;;;;;8.07;5.70;;;38.90;99.90;;;;;;5052721;28;20409;-51
2022/08/12 10:15:53;;;;;;;7.00;5.50;;;38.50;99.90;;;;;;5039389;28;20811;-51
2022/08/12 10:18:19;;;;;;;7.17;5.90;;;38.70;99.90;;;;;;5053663;28;20372;-51
2022/08/12 10:20:44;;;;;;;8.00;5.20;;;38.30;99.90;;;;;;5052829;28;20833;-51
2022/08/12 10:23:10;;;;;;;7.57;5.50;;;38.60;99.90;;;;;;5052414;28;20416;-51
2022/08/12 10:31:05;;;;;;;7.80;5.70;;;38.90;99.90;;;;;;5052356;28;20385;-51
2022/08/12 10:33:32;;;;;;;8.57;5.45;;;38.80;99.90;;;;;;5034903;28;20471;-51
2022/08/12 10:35:59;;;;;;;7.45;4.93;;;38.50;99.90;;;;;;5052184;28;20379;-53
2022/08/12 10:38:24;;;;;;;7.63;4.60;;;37.20;99.90;;;;;;5052175;28;20405;-51
2022/08/12 10:43:41;;;;;;;7.80;5.30;;;35.60;99.90;;;;;;5051939;28;20519;-51
2022/08/12 10:46:16;;;;;;;7.80;5.80;;;34.50;99.90;;;;;;5051875;28;20456;-51
2022/08/12 10:48:47;;;;;;;7.28;5.18;;;33.10;99.90;;;;;;5052704;28;20373;-50
2022/08/12 10:51:14;;;;;;;7.55;6.00;;;32.10;99.90;;;;;;5052197;28;20826;-51
2022/08/12 10:53:42;;;;;;;7.68;5.00;;;31.50;99.90;;;;;;5052249;28;20700;-50
2022/08/12 10:56:10;;;;;;;7.20;5.80;;;31.20;99.90;;;;;;5051212;28;20389;-51
2022/08/12 10:58:37;;;;;;;7.70;6.00;;;31.60;99.90;;;;;;5052489;28;20389;-50
2022/08/12 11:01:05;;;;;;;10.20;5.40;;;32.00;99.90;;;;;;5051597;28;20437;-50
2022/08/12 11:03:35;;;;;;;8.90;5.90;;;32.00;99.90;;;;;;5051890;28;20398;-50
2022/08/12 11:06:05;;;;;;;7.80;6.10;;;31.70;99.90;;;;;;5051666;28;20464;-50
2022/08/12 11:08:32;;;;;;;7.40;5.40;;;31.40;99.90;;;;;;5052581;28;20389;-50
2022/08/12 11:10:57;;;;;;;7.13;4.95;;;31.80;99.90;;;;;;5051016;28;20385;-50
2022/08/12 11:13:23;;;;;;;8.30;6.00;;;32.20;99.90;;;;;;5052221;28;20388;-50
2022/08/12 11:15:49;;;;;;;8.90;6.15;;;32.60;99.90;;;;;;5051533;28;20382;-52
2022/08/12 11:18:14;;;;;;;7.28;5.45;;;32.50;99.90;;;;;;5051592;28;20417;-51
2022/08/12 11:20:40;;;;;;;7.60;5.90;;;32.70;99.90;;;;;;5051798;28;20373;-50
2022/08/12 11:23:06;;;;;;;7.40;5.28;;;32.80;99.90;;;;;;5050930;28;20389;-50
2022/08/12 11:25:31;;;;;;;7.95;4.70;;;32.60;99.90;;;;;;5051195;28;20973;-50
2022/08/12 11:27:57;;;;;;;6.43;5.25;;;32.50;99.90;;;;;;5050993;28;20413;-50
2022/08/12 11:30:23;;;;;;;7.77;5.20;;;32.20;99.90;;;;;;5051745;28;20377;-50
2022/08/12 11:32:48;;;;;;;6.97;5.40;;;32.10;99.90;;;;;;5051215;28;20389;-55
2022/08/12 11:35:14;;;;;;;6.83;5.20;;;32.00;99.90;;;;;;5051423;28;20378;-50
2022/08/12 11:37:39;;;;;;;7.40;5.30;;;32.00;99.90;;;;;;5051377;28;20384;-51
2022/08/12 11:40:06;;;;;;;6.40;4.70;;;32.10;99.90;;;;;;5050807;28;20382;-50
2022/08/12 11:42:35;;;;;;;8.38;5.40;;;32.20;99.90;;;;;;5051394;28;20458;-50
2022/08/12 11:45:02;;;;;;;7.90;5.28;;;32.30;99.90;;;;;;5050428;28;20442;-51
2022/08/12 11:47:27;;;;;;;7.28;4.60;;;32.30;99.90;;;;;;5033569;28;20750;-51
2022/08/12 11:49:53;;;;;;;7.03;4.75;;;32.60;99.90;;;;;;5050184;28;20427;-51
2022/08/12 11:52:19;;;;;;;8.43;5.70;;;32.40;99.90;;;;;;5051414;28;20384;-51
2022/08/12 11:54:45;;;;;;;6.90;4.40;;;32.10;99.90;;;;;;5051089;28;20459;-51
2022/08/12 11:57:10;;;;;;;7.03;5.32;;;32.10;99.90;;;;;;5049865;28;20397;-51
2022/08/12 11:59:36;;;;;;;7.63;5.22;;;32.40;99.90;;;;;;5050878;28;20881;-51
2022/08/12 12:02:02;;;;;;;7.43;5.07;;;32.70;99.90;;;;;;5050246;28;20405;-51
2022/08/12 12:04:27;;;;;;;7.53;5.40;;;32.90;99.90;;;;;;5051476;28;20387;-51
2022/08/12 12:06:53;;;;;;;7.20;5.10;;;33.10;99.90;;;;;;5050187;28;20773;-51
2022/08/12 12:09:18;;;;;;;7.00;5.40;;;33.10;99.90;;;;;;5050769;28;20440;-51
2022/08/12 12:11:44;;;;;;;8.70;5.20;;;33.20;99.90;;;;;;5050788;28;20385;-51
2022/08/12 12:14:10;;;;;;;8.05;5.50;;;32.80;99.90;;;;;;5049899;28;20387;-51
2022/08/12 12:16:36;;;;;;;7.50;5.30;;;32.30;99.90;;;;;;5032837;28;20447;-51
2022/08/12 12:19:04;;;;;;;8.25;5.53;;;31.80;99.90;;;;;;5050082;28;20875;-51
2022/08/12 12:21:30;;;;;;;7.20;5.60;;;31.80;99.90;;;;;;5050551;28;20467;-51
2022/08/12 12:23:55;;;;;;;8.40;5.75;;;32.50;99.90;;;;;;5049417;28;20476;-51
2022/08/12 12:26:21;;;;;;;6.77;4.90;;;33.10;99.90;;;;;;5050879;28;20472;-51
2022/08/12 12:28:47;;;;;;;8.10;5.40;;;32.80;99.90;;;;;;5050388;28;20397;-51
2022/08/12 12:31:13;;;;;;;7.43;5.65;;;32.40;99.90;;;;;;5049698;28;20389;-52
2022/08/12 12:33:39;;;;;;;8.60;6.03;;;31.60;99.90;;;;;;5050485;28;20370;-51
2022/08/12 12:36:06;;;;;;;8.85;6.13;;;31.40;99.90;;;;;;5049775;28;20447;-51
2022/08/12 12:38:32;;;;;;;7.70;5.50;;;31.90;99.90;;;;;;5050075;28;20863;-51
2022/08/12 12:40:58;;;;;;;8.03;5.40;;;32.20;99.90;;;;;;5049402;28;20540;-51
2022/08/12 12:43:24;;;;;;;10.25;5.50;;;32.40;99.90;;;;;;5050203;28;20370;-51
2022/08/12 12:45:50;;;;;;;6.70;5.83;;;32.70;99.90;;;;;;5050084;28;20858;-56
2022/08/12 12:48:17;;;;;;;7.97;6.28;;;32.50;99.90;;;;;;5050596;28;20425;-51
2022/08/12 12:51:14;;;;;;;7.03;5.05;;;32.30;99.90;;;;;;5050542;28;20503;-51
2022/08/12 12:53:38;;;;;;;7.40;5.60;;;31.80;99.90;;;;;;5049572;28;20416;-51
2022/08/12 12:56:08;;;;;;;7.83;5.97;;;31.10;99.90;;;;;;5049086;28;20446;-51
2022/08/12 12:58:33;;;;;;;7.72;6.10;;;31.00;99.90;;;;;;5050304;28;20731;-51
2022/08/12 13:01:00;;;;;;;7.60;5.28;;;31.00;99.90;;;;;;5049804;28;20405;-51
2022/08/12 13:03:26;;;;;;;7.70;5.47;;;31.10;99.90;;;;;;5050012;28;20394;-52
2022/08/12 13:05:52;;;;;;;8.07;5.60;;;31.10;99.90;;;;;;5049644;28;20386;-55
2022/08/12 13:08:26;;;;;;;7.70;5.60;;;31.20;99.90;;;;;;5049195;28;20377;-51
2022/08/12 13:10:53;;;;;;;6.85;5.75;;;31.20;99.90;;;;;;5049231;28;20399;-55
2022/08/12 13:13:21;;;;;;;6.85;4.80;;;31.40;99.90;;;;;;5050085;28;20389;-51
2022/08/12 13:15:48;;;;;;;6.78;5.28;;;31.80;99.90;;;;;;5049943;28;20369;-51
2022/08/12 13:18:17;;;;;;;8.25;7.20;;;32.00;99.90;;;;;;5049288;28;20412;-51
2022/08/12 13:20:44;;;;;;;6.80;6.00;;;32.00;99.90;;;;;;5049847;28;20382;-51
2022/08/12 13:23:11;;;;;;;7.90;6.63;;;31.90;99.90;;;;;;5049238;28;20389;-51
2022/08/12 13:25:40;;;;;;;7.72;5.70;;;32.00;99.90;;;;;;5049309;28;20433;-51
2022/08/12 13:28:07;;;;;;;7.00;6.07;;;32.20;99.90;;;;;;5048626;28;20410;-51
2022/08/12 13:30:35;;;;;;;7.30;6.18;;;32.20;99.90;;;;;;5049730;28;20369;-51
2022/08/12 13:33:00;;;;;;;8.40;5.82;;;32.00;99.90;;;;;;5048722;28;20389;-51
2022/08/12 13:35:34;;;;;;;7.00;5.70;;;31.60;99.90;;;;;;5049486;28;20708;-51
2022/08/12 13:38:00;;;;;;;7.13;5.83;;;31.20;99.90;;;;;;5049135;28;20393;-51
2022/08/12 13:40:31;;;;;;;9.00;5.78;;;31.00;99.90;;;;;;5049444;28;20381;-51
2022/08/12 13:43:00;;;;;;;7.43;6.60;;;31.10;99.90;;;;;;5048947;28;20446;-51
2022/08/12 13:45:28;;;;;;;7.23;6.53;;;31.80;99.90;;;;;;5050368;28;20731;-51
2022/08/12 13:48:00;;;;;;;7.75;5.90;;;32.30;99.90;;;;;;5053137;28;20389;-51
2022/08/12 13:50:42;;;;;;;7.57;6.70;;;32.20;99.90;;;;;;5053216;28;20903;-52
2022/08/12 13:53:15;;;;;;;7.80;6.25;;;31.80;99.90;;;;;;5052664;28;20369;-51
2022/08/12 13:55:46;;;;;;;6.70;5.72;;;31.20;99.90;;;;;;5052873;28;20770;-51
2022/08/12 13:58:16;;;;;;;6.90;6.20;;;30.90;99.90;;;;;;5052721;28;20424;-51
2022/08/12 14:00:52;;;;;;;7.87;5.77;;;30.70;99.90;;;;;;5053390;28;20381;-51
2022/08/12 14:03:19;;;;;;;11.20;6.23;;;30.30;99.90;;;;;;5052856;28;20686;-50
2022/08/12 14:05:45;;;;;;;6.90;6.20;;;30.40;99.90;;;;;;5053205;28;20865;-51
2022/08/12 14:08:14;;;;;;;7.57;5.80;;;30.40;99.90;;;;;;5034714;28;20809;-51
2022/08/12 14:10:54;;;;;;;7.03;5.70;;;30.80;99.90;;;;;;5052917;28;20787;-50
2022/08/12 14:13:23;;;;;;;7.43;6.07;;;30.90;99.90;;;;;;5052775;28;20392;-50
2022/08/12 14:15:57;;;;;;;7.90;6.50;;;31.10;99.90;;;;;;5052972;28;20385;-50
2022/08/12 14:18:24;;;;;;;7.40;6.47;;;31.40;99.90;;;;;;5052862;28;20456;-50
2022/08/12 14:21:00;;;;;;;7.70;6.50;;;31.70;99.90;;;;;;5053261;28;20420;-50
2022/08/12 14:23:33;;;;;;;7.30;6.50;;;31.60;99.90;;;;;;5053278;28;20436;-51
2022/08/12 14:26:00;;;;;;;9.50;6.07;;;31.70;99.90;;;;;;5052053;28;20393;-51
2022/08/12 14:28:33;;;;;;;7.32;6.32;;;31.70;99.90;;;;;;5052378;28;20940;-51
2022/08/12 14:31:02;;;;;;;8.38;6.45;;;31.40;1.00;;;;;;5051603;28;20780;-51
2022/08/12 14:33:32;;;;;;;7.68;6.88;;;31.00;1.00;;;;;;5053329;28;20389;-51
2022/08/12 14:36:00;;;;;;;11.90;6.40;;;30.40;99.90;;;;;;5051970;28;20389;-50
2022/08/12 14:38:28;;;;;;;9.00;6.30;;;30.00;99.90;;;;;;5052768;28;20370;-50
2022/08/12 14:41:00;;;;;;;7.20;6.40;;;29.90;99.90;;;;;;5051882;28;20460;-55
2022/08/12 14:43:28;;;;;;;7.23;6.50;;;29.90;99.90;;;;;;5052639;28;20394;-51
2022/08/12 14:45:55;;;;;;;7.70;6.45;;;30.00;99.90;;;;;;5051564;28;20382;-55